Hamilton Municipal, TX

10:02 AM CDT on July 22, 2014 (GMT -0500)
Gatesville (KGOP) Elev 906 ft | 31.42 °N, 97.80 °W | Change Station

Current weather conditions updated 7 minutes ago

Clear
Clear
84 °F
Feels Like 90 °F
N
0
Wind Variable Wind from North

Today is forecast to be nearly the same temperature as yesterday.

Today
High -- | Low -- °F
--% Chance of Precip.
Yesterday
High -- | Low -- °F
Precip. -- in
6:42 AM 8:35 PM
Waning Crescent, 17% visible
Pressure 30.09 in
Visibility 9.0 miles
Clouds Clear
Heat Index 90 °F
Dew Point 72 °F
Humidity 66%
Rainfall 0.00 in
Snow Depth Not available.
UV 5 out of 12
Pollen 5.60 out of 12
Air Quality Not available.
Flu Activity Sporadic
METAR KGOP 221455Z AUTO 00000KT 9SM CLR 29/22 A3009 RMK AO2

More Conditions Fewer Conditions

Pressure 30.09 in
Visibility 9.0 miles
Clouds Clear
Heat Index 90 °F
Dew Point 72 °F
Humidity 66%
Rainfall 0.00 in
Snow Depth Not available.
UV 5 out of 12
Pollen 5.60 out of 12
Air Quality Not available.
Flu Activity Sporadic
METAR KGOP 221455Z AUTO 00000KT 9SM CLR 29/22 A3009 RMK AO2

More Conditions Fewer Conditions

10-Day Weather Forecast

LIGHTNING

Thunderstorms are forecast for your area. Cloud conditions might be right for producing strikes in the next few days, though lightning itself cannot be forecasted.

Lightning is a visible electrical discharge produced by a thunderstorm, based on the build up of oppositely charged particles within a cloud and from cloud to ground.

Know how to stay safe in a lightning storm.

Check out these Lightning WunderPhotos!

Almanac

Astronomy

Jul. 22, 2014 Rise Set
Actual Time 6:42 AM CDT 8:35 PM CDT
Civil Twilight 6:15 AM CDT 9:02 PM CDT
Nautical Twilight 5:42 AM CDT 9:35 PM CDT
Astronomical Twilight 5:07 AM CDT 10:10 PM CDT
Moon 3:13 AM CDT 5:16 PM CDT
Length of Visible Light 14h 47m
Length of Day
13h 53m
Tomorrow will be 1m 12s shorter.
Waning Crescent, 17% of the Moon is Illuminated
Today
Waning Crescent
Jul 26
New
Aug 3
First Quarter
Aug 10
Full
Aug 17
Last Quarter

Today's Extremes

State Highs State Lows

Community

WunderPhotos

Upload Photos

1,736,257 photos uploaded!

Nearby

Snow Depth

Station Depth Elevation
No new snow has been reported.

Earthquake Activity

City Distance Mag. Time & Date
No recent earthquake activity has been reported nearby.
Minimum magnitude displayed is 2.5.

Coastal Water Temperatures

Place Temperature
No Stations Reporting

Nearby Weather Stations

Station Location Temp. Heat Index Dew Point Humidity Wind Precip. Elev Updated Type
W5DNT, Hamilton, TX 79.9 °F 83 °F 71 °F 75% ESE  at  0.0 mph - / hr 1217 ft 9:56 AM CDT Normal
AB5BX, Pottsville, TX 81.7 °F 86 °F 71 °F 71% ESE  at  3.2 mph - / hr 1414 ft 9:50 AM CDT Normal
Zion Lutheran Church, Priddy, TX 85.6 °F 98 °F 72 °F 78% North  at  0.0 mph 0.00 in / hr 1558 ft 10:01 AM CDT Rapid Fire

Show More Stations Show Fewer Stations